Time,TemperatureF,DewpointF,PressureIn,WindDirection,WindDirectionDegrees,WindSpeedMPH,WindSpeedGustMPH,Humidity,HourlyPrecipIn,Conditions,Clouds,dailyrainin,SoftwareType,DateUTC
2013-04-06 00:00:00,40.3,17.9,29.62,West,270,0.0,1.0,40,0.00,,,0.00,VWS V14.00,2013-04-06 04:00:00,
2013-04-06 00:05:00,40.1,17.7,29.62,NE,45,7.4,8.4,40,0.00,,,0.00,VWS V14.00,2013-04-06 04:05:00,
2013-04-06 00:10:00,39.9,17.6,29.62,SW,225,4.3,5.3,40,0.00,,,0.00,VWS V14.00,2013-04-06 04:10:00,
2013-04-06 00:15:00,39.9,17.6,29.62,NNE,22,3.9,4.9,40,0.00,,,0.00,VWS V14.00,2013-04-06 04:15:00,
2013-04-06 00:20:00,39.9,17.6,29.62,WNW,292,0.0,1.0,40,0.00,,,0.00,VWS V14.00,2013-04-06 04:20:00,
2013-04-06 00:25:00,39.7,17.4,29.62,NE,45,0.0,3.3,40,0.00,,,0.00,VWS V14.00,2013-04-06 04:25:00,
2013-04-06 00:30:00,39.7,17.4,29.65,West,270,0.0,1.0,40,0.00,,,0.00,VWS V14.00,2013-04-06 04:30:00,
2013-04-06 00:35:00,39.6,17.2,29.65,SW,225,0.0,1.0,40,0.00,,,0.00,VWS V14.00,2013-04-06 04:35:00,
2013-04-06 00:40:00,39.4,17.1,29.65,North,0,0.0,1.0,40,0.00,,,0.00,VWS V14.00,2013-04-06 04:40:00,
2013-04-06 00:45:00,39.4,17.1,29.65,NNE,22,0.0,1.0,40,0.00,,,0.00,VWS V14.00,2013-04-06 04:45:00,
2013-04-06 00:50:00,39.2,17.5,29.65,SW,225,0.0,2.6,41,0.00,,,0.00,VWS V14.00,2013-04-06 04:50:00,
2013-04-06 00:55:00,39.0,17.3,29.65,SE,135,0.0,4.9,41,0.00,,,0.00,VWS V14.00,2013-04-06 04:55:00,
2013-04-06 01:00:00,39.0,17.3,29.65,ESE,112,0.0,4.5,41,0.00,,,0.00,VWS V14.00,2013-04-06 05:00:00,
2013-04-06 01:05:00,38.8,17.2,29.65,NE,45,4.3,5.3,41,0.00,,,0.00,VWS V14.00,2013-04-06 05:05:00,
2013-04-06 01:10:00,38.8,17.2,29.65,NW,315,0.0,1.0,41,0.00,,,0.00,VWS V14.00,2013-04-06 05:10:00,
2013-04-06 01:15:00,38.7,17.0,29.65,SSW,202,3.5,4.5,41,0.00,,,0.00,VWS V14.00,2013-04-06 05:15:00,
2013-04-06 01:20:00,38.7,16.4,29.65,SSW,202,4.3,5.3,40,0.00,,,0.00,VWS V14.00,2013-04-06 05:20:00,
2013-04-06 01:25:00,38.5,16.3,29.65,SW,225,0.0,3.3,40,0.00,,,0.00,VWS V14.00,2013-04-06 05:25:00,
2013-04-06 01:30:00,38.5,16.3,29.65,WNW,292,1.6,2.6,40,0.00,,,0.00,VWS V14.00,2013-04-06 05:30:00,
2013-04-06 01:35:00,38.3,16.1,29.65,West,270,0.0,1.0,40,0.00,,,0.00,VWS V14.00,2013-04-06 05:35:00,
2013-04-06 01:40:00,38.1,15.9,29.65,NNE,22,2.7,3.7,40,0.00,,,0.00,VWS V14.00,2013-04-06 05:40:00,
2013-04-06 01:45:00,38.1,15.9,29.65,West,270,2.3,6.9,40,0.00,,,0.00,VWS V14.00,2013-04-06 05:45:00,
2013-04-06 01:50:00,37.9,15.8,29.65,NE,45,2.7,8.0,40,0.00,,,0.00,VWS V14.00,2013-04-06 05:50:00,
2013-04-06 01:55:00,37.9,15.8,29.65,SSW,202,3.9,4.9,40,0.00,,,0.00,VWS V14.00,2013-04-06 05:55:00,
2013-04-06 02:00:00,37.8,15.6,29.65,NNW,338,0.0,5.3,40,0.00,,,0.00,VWS V14.00,2013-04-06 06:00:00,
2013-04-06 02:05:00,37.6,15.5,29.68,NE,45,1.6,2.6,40,0.00,,,0.00,VWS V14.00,2013-04-06 06:05:00,
2013-04-06 02:10:00,37.6,15.5,29.68,SW,225,6.7,7.7,40,0.00,,,0.00,VWS V14.00,2013-04-06 06:10:00,
2013-04-06 02:15:00,37.4,15.3,29.68,NNE,22,0.0,1.0,40,0.00,,,0.00,VWS V14.00,2013-04-06 06:15:00,
2013-04-06 02:20:00,37.4,15.3,29.68,NNE,22,0.0,1.0,40,0.00,,,0.00,VWS V14.00,2013-04-06 06:20:00,
2013-04-06 02:25:00,37.2,15.7,29.68,South,180,2.7,3.7,41,0.00,,,0.00,VWS V14.00,2013-04-06 06:25:00,
2013-04-06 02:30:00,37.0,15.5,29.68,North,0,0.0,1.0,41,0.00,,,0.00,VWS V14.00,2013-04-06 06:30:00,
2013-04-06 02:35:00,37.0,15.5,29.68,WNW,292,0.0,4.5,41,0.00,,,0.00,VWS V14.00,2013-04-06 06:35:00,
2013-04-06 02:40:00,36.9,15.4,29.68,North,0,6.7,7.7,41,0.00,,,0.00,VWS V14.00,2013-04-06 06:40:00,
2013-04-06 02:45:00,36.7,15.2,29.68,North,0,0.0,1.0,41,0.00,,,0.00,VWS V14.00,2013-04-06 06:45:00,
2013-04-06 02:50:00,36.7,15.2,29.68,NNW,338,0.0,1.0,41,0.00,,,0.00,VWS V14.00,2013-04-06 06:50:00,
2013-04-06 02:55:00,36.3,14.9,29.68,NW,315,0.0,4.5,41,0.00,,,0.00,VWS V14.00,2013-04-06 06:55:00,
2013-04-06 03:00:00,36.3,14.9,29.68,NNE,22,0.0,3.0,41,0.00,,,0.00,VWS V14.00,2013-04-06 07:00:00,
2013-04-06 03:05:00,36.1,14.7,29.68,NNW,338,0.0,5.3,41,0.00,,,0.00,VWS V14.00,2013-04-06 07:05:00,
2013-04-06 03:10:00,36.1,14.7,29.68,NE,45,5.1,6.1,41,0.00,,,0.00,VWS V14.00,2013-04-06 07:10:00,
2013-04-06 03:15:00,36.0,14.6,29.71,NW,315,1.6,2.6,41,0.00,,,0.00,VWS V14.00,2013-04-06 07:15:00,
2013-04-06 03:20:00,36.0,14.6,29.71,North,0,1.6,2.6,41,0.00,,,0.00,VWS V14.00,2013-04-06 07:20:00,
2013-04-06 03:25:00,35.8,14.4,29.71,North,0,0.0,1.0,41,0.00,,,0.00,VWS V14.00,2013-04-06 07:25:00,
2013-04-06 03:30:00,35.8,14.4,29.71,NNW,338,4.7,5.7,41,0.00,,,0.00,VWS V14.00,2013-04-06 07:30:00,
2013-04-06 03:35:00,35.6,14.2,29.71,WSW,248,4.3,5.3,41,0.00,,,0.00,VWS V14.00,2013-04-06 07:35:00,
2013-04-06 03:40:00,35.6,14.2,29.74,SSE,158,0.0,7.3,41,0.00,,,0.00,VWS V14.00,2013-04-06 07:40:00,
2013-04-06 03:45:00,35.4,14.1,29.74,NNE,22,1.6,2.6,41,0.00,,,0.00,VWS V14.00,2013-04-06 07:45:00,
2013-04-06 03:50:00,35.4,14.1,29.74,North,0,0.0,1.0,41,0.00,,,0.00,VWS V14.00,2013-04-06 07:50:00,
2013-04-06 03:55:00,35.4,14.1,29.74,North,0,2.0,5.3,41,0.00,,,0.00,VWS V14.00,2013-04-06 07:55:00,
2013-04-06 04:00:00,35.4,14.1,29.74,NNW,338,1.6,2.6,41,0.00,,,0.00,VWS V14.00,2013-04-06 08:00:00,
2013-04-06 04:05:00,35.4,14.1,29.74,SSW,202,0.0,1.0,41,0.00,,,0.00,VWS V14.00,2013-04-06 08:05:00,
2013-04-06 04:10:00,35.2,13.9,29.74,NNE,22,0.0,3.3,41,0.00,,,0.00,VWS V14.00,2013-04-06 08:10:00,
2013-04-06 04:15:00,35.1,13.8,29.74,NE,45,0.0,1.0,41,0.00,,,0.00,VWS V14.00,2013-04-06 08:15:00,
2013-04-06 04:20:00,35.1,13.8,29.74,NNW,338,0.0,1.0,41,0.00,,,0.00,VWS V14.00,2013-04-06 08:20:00,
2013-04-06 04:25:00,34.9,13.6,29.76,NE,45,0.0,1.0,41,0.00,,,0.00,VWS V14.00,2013-04-06 08:25:00,
2013-04-06 04:30:00,34.9,13.6,29.76,WSW,248,0.0,3.0,41,0.00,,,0.00,VWS V14.00,2013-04-06 08:30:00,
2013-04-06 04:35:00,34.7,13.4,29.76,ENE,68,1.6,3.3,41,0.00,,,0.00,VWS V14.00,2013-04-06 08:35:00,
2013-04-06 04:40:00,34.5,13.3,29.76,WNW,292,2.0,3.0,41,0.00,,,0.00,VWS V14.00,2013-04-06 08:40:00,
2013-04-06 04:45:00,34.5,13.3,29.76,North,0,0.0,1.0,41,0.00,,,0.00,VWS V14.00,2013-04-06 08:45:00,
2013-04-06 04:50:00,34.5,13.3,29.76,North,0,3.5,4.5,41,0.00,,,0.00,VWS V14.00,2013-04-06 08:50:00,
2013-04-06 04:55:00,34.3,13.1,29.76,North,0,0.0,1.0,41,0.00,,,0.00,VWS V14.00,2013-04-06 08:55:00,
2013-04-06 05:00:00,34.3,13.1,29.76,NNW,338,3.5,4.5,41,0.00,,,0.00,VWS V14.00,2013-04-06 09:00:00,
2013-04-06 05:05:00,34.2,12.9,29.76,ENE,68,0.0,3.7,41,0.00,,,0.00,VWS V14.00,2013-04-06 09:05:00,
2013-04-06 05:10:00,34.2,12.4,29.79,NW,315,0.0,1.0,40,0.00,,,0.00,VWS V14.00,2013-04-06 09:10:00,
2013-04-06 05:15:00,34.0,12.2,29.79,North,0,3.5,4.5,40,0.00,,,0.00,VWS V14.00,2013-04-06 09:15:00,
2013-04-06 05:20:00,34.0,12.2,29.79,NNW,338,0.0,1.0,40,0.00,,,0.00,VWS V14.00,2013-04-06 09:20:00,
2013-04-06 05:25:00,33.8,12.1,29.79,SW,225,0.0,1.0,40,0.00,,,0.00,VWS V14.00,2013-04-06 09:25:00,
2013-04-06 05:30:00,33.8,12.1,29.79,NW,315,0.0,1.0,40,0.00,,,0.00,VWS V14.00,2013-04-06 09:30:00,
2013-04-06 05:35:00,33.6,12.4,29.79,NNW,338,1.6,2.6,41,0.00,,,0.00,VWS V14.00,2013-04-06 09:35:00,
2013-04-06 05:40:00,33.6,12.4,29.79,North,0,3.5,4.5,41,0.00,,,0.00,VWS V14.00,2013-04-06 09:40:00,
2013-04-06 05:45:00,33.6,12.4,29.79,ESE,112,4.7,5.7,41,0.00,,,0.00,VWS V14.00,2013-04-06 09:45:00,
2013-04-06 05:50:00,33.4,11.7,29.79,WSW,248,0.0,1.0,40,0.00,,,0.00,VWS V14.00,2013-04-06 09:50:00,
2013-04-06 05:55:00,33.4,11.7,29.82,SSW,202,3.5,4.5,40,0.00,,,0.00,VWS V14.00,2013-04-06 09:55:00,
2013-04-06 06:01:00,33.3,11.6,29.82,WNW,292,0.0,1.0,40,0.00,,,0.00,VWS V14.00,2013-04-06 10:01:00,
2013-04-06 06:06:00,33.3,11.6,29.82,WNW,292,0.0,1.0,40,0.00,,,0.00,VWS V14.00,2013-04-06 10:06:00,
2013-04-06 06:11:00,33.1,11.4,29.82,NE,45,4.3,5.3,40,0.00,,,0.00,VWS V14.00,2013-04-06 10:11:00,
2013-04-06 06:16:00,32.9,11.2,29.82,East,90,0.0,4.5,40,0.00,,,0.00,VWS V14.00,2013-04-06 10:16:00,
2013-04-06 06:21:00,32.7,11.1,29.82,North,0,7.0,8.0,40,0.00,,,0.00,VWS V14.00,2013-04-06 10:21:00,
2013-04-06 06:26:00,32.7,11.1,29.85,NNE,22,0.0,1.0,40,0.00,,,0.00,VWS V14.00,2013-04-06 10:26:00,
2013-04-06 06:31:00,32.7,11.1,29.85,NW,315,0.0,1.0,40,0.00,,,0.00,VWS V14.00,2013-04-06 10:31:00,
2013-04-06 06:36:00,32.7,11.1,29.85,NE,45,3.9,4.9,40,0.00,,,0.00,VWS V14.00,2013-04-06 10:36:00,
2013-04-06 06:41:00,32.5,10.9,29.85,NE,45,3.9,4.9,40,0.00,,,0.00,VWS V14.00,2013-04-06 10:41:00,
2013-04-06 06:46:00,32.7,11.1,29.85,NNW,338,5.9,6.9,40,0.00,,,0.00,VWS V14.00,2013-04-06 10:46:00,
2013-04-06 06:51:00,32.5,10.9,29.85,SW,225,2.0,3.0,40,0.00,,,0.00,VWS V14.00,2013-04-06 10:51:00,
2013-04-06 06:56:00,32.5,10.9,29.85,NNE,22,3.5,10.8,40,0.00,,,0.00,VWS V14.00,2013-04-06 10:56:00,
2013-04-06 07:01:00,32.7,11.1,29.85,North,0,9.8,10.8,40,0.00,,,0.00,VWS V14.00,2013-04-06 11:01:00,
2013-04-06 07:07:00,32.5,10.9,29.85,NW,315,3.5,6.5,40,0.00,,,0.00,VWS V14.00,2013-04-06 11:07:00,
2013-04-06 07:12:00,32.7,11.1,29.88,North,0,0.0,1.0,40,0.00,,,0.00,VWS V14.00,2013-04-06 11:12:00,
2013-04-06 07:17:00,32.5,10.9,29.88,NE,45,2.3,3.3,40,0.00,,,0.00,VWS V14.00,2013-04-06 11:17:00,
2013-04-06 07:22:00,32.5,10.9,29.88,ENE,68,0.0,1.0,40,0.00,,,0.00,VWS V14.00,2013-04-06 11:22:00,
2013-04-06 07:27:00,32.7,11.1,29.88,WNW,292,2.7,5.7,40,0.00,,,0.00,VWS V14.00,2013-04-06 11:27:00,
2013-04-06 07:32:00,32.9,11.2,29.88,NW,315,0.0,1.0,40,0.00,,,0.00,VWS V14.00,2013-04-06 11:32:00,
2013-04-06 07:33:00,33.1,11.4,29.88,WNW,292,2.0,3.0,40,0.00,,,0.00,VWS V14.00,2013-04-06 11:33:00,
2013-04-06 07:38:00,33.1,11.4,29.88,SE,135,0.0,1.0,40,0.00,,,0.00,VWS V14.00,2013-04-06 11:38:00,
2013-04-06 07:43:00,33.1,11.4,29.88,North,0,6.3,7.3,40,0.00,,,0.00,VWS V14.00,2013-04-06 11:43:00,
2013-04-06 07:48:00,33.1,11.4,29.88,East,90,2.0,4.5,40,0.00,,,0.00,VWS V14.00,2013-04-06 11:48:00,
2013-04-06 07:53:00,33.1,11.4,29.88,NNE,22,4.3,5.3,40,0.00,,,0.00,VWS V14.00,2013-04-06 11:53:00,
2013-04-06 07:58:00,33.1,11.4,29.91,North,0,0.0,1.0,40,0.00,,,0.00,VWS V14.00,2013-04-06 11:58:00,
2013-04-06 08:03:00,33.1,10.8,29.91,NNW,338,5.5,6.5,39,0.00,,,0.00,VWS V14.00,2013-04-06 12:03:00,
2013-04-06 08:08:00,33.4,11.7,29.91,NNE,22,0.0,1.0,40,0.00,,,0.00,VWS V14.00,2013-04-06 12:08:00,
2013-04-06 08:13:00,33.6,11.3,29.91,North,0,1.6,2.6,39,0.00,,,0.00,VWS V14.00,2013-04-06 12:13:00,
2013-04-06 08:18:00,33.1,10.8,29.91,WSW,248,10.6,11.6,39,0.00,,,0.00,VWS V14.00,2013-04-06 12:18:00,
2013-04-06 08:23:00,33.1,10.8,29.91,NE,45,2.3,3.3,39,0.00,,,0.00,VWS V14.00,2013-04-06 12:23:00,
2013-04-06 08:28:00,33.1,10.8,29.91,West,270,2.7,5.3,39,0.00,,,0.00,VWS V14.00,2013-04-06 12:28:00,
2013-04-06 08:33:00,33.1,10.2,29.91,North,0,3.5,4.5,38,0.00,,,0.00,VWS V14.00,2013-04-06 12:33:00,
2013-04-06 08:38:00,33.1,10.2,29.91,WSW,248,5.5,6.5,38,0.00,,,0.00,VWS V14.00,2013-04-06 12:38:00,
2013-04-06 08:43:00,33.3,10.4,29.91,NNE,22,2.7,5.7,38,0.00,,,0.00,VWS V14.00,2013-04-06 12:43:00,
2013-04-06 08:48:00,33.3,10.4,29.91,West,270,4.7,5.7,38,0.00,,,0.00,VWS V14.00,2013-04-06 12:48:00,
2013-04-06 08:53:00,33.4,10.6,29.91,NW,315,0.0,1.0,38,0.00,,,0.00,VWS V14.00,2013-04-06 12:53:00,
2013-04-06 08:58:00,33.6,10.7,29.91,NNW,338,7.0,8.0,38,0.00,,,0.00,VWS V14.00,2013-04-06 12:58:00,
2013-04-06 09:03:00,33.6,10.7,29.91,SW,225,4.3,5.3,38,0.00,,,0.00,VWS V14.00,2013-04-06 13:03:00,
2013-04-06 09:08:00,33.6,10.7,29.91,NW,315,2.7,3.7,38,0.00,,,0.00,VWS V14.00,2013-04-06 13:08:00,
2013-04-06 09:13:00,34.0,10.5,29.91,North,0,0.0,1.0,37,0.00,,,0.00,VWS V14.00,2013-04-06 13:13:00,
2013-04-06 09:18:00,34.3,10.8,29.91,NE,45,2.7,3.7,37,0.00,,,0.00,VWS V14.00,2013-04-06 13:18:00,
2013-04-06 09:23:00,35.1,11.4,29.91,North,0,12.5,13.5,37,0.00,,,0.00,VWS V14.00,2013-04-06 13:23:00,
2013-04-06 09:28:00,35.1,11.4,29.94,NNE,22,2.3,3.3,37,0.00,,,0.00,VWS V14.00,2013-04-06 13:28:00,
2013-04-06 09:33:00,35.8,12.1,29.94,WSW,248,0.0,1.0,37,0.00,,,0.00,VWS V14.00,2013-04-06 13:33:00,
2013-04-06 09:38:00,36.5,12.7,29.94,SE,135,0.0,1.0,37,0.00,,,0.00,VWS V14.00,2013-04-06 13:38:00,
2013-04-06 09:43:00,36.9,13.0,29.94,NW,315,7.0,8.0,37,0.00,,,0.00,VWS V14.00,2013-04-06 13:43:00,
2013-04-06 09:48:00,36.7,12.9,29.94,NNE,22,2.7,3.7,37,0.00,,,0.00,VWS V14.00,2013-04-06 13:48:00,
2013-04-06 09:53:00,36.9,12.4,29.94,NW,315,3.5,4.5,36,0.00,,,0.00,VWS V14.00,2013-04-06 13:53:00,
2013-04-06 09:58:00,36.9,12.4,29.94,North,0,0.0,5.7,36,0.00,,,0.00,VWS V14.00,2013-04-06 13:58:00,
2013-04-06 10:03:00,37.0,12.6,29.94,NNW,338,1.6,7.7,36,0.00,,,0.00,VWS V14.00,2013-04-06 14:03:00,
2013-04-06 10:08:00,36.9,12.4,29.94,North,0,5.1,6.1,36,0.00,,,0.00,VWS V14.00,2013-04-06 14:08:00,
2013-04-06 10:13:00,37.4,12.9,29.94,NNE,22,2.3,3.3,36,0.00,,,0.00,VWS V14.00,2013-04-06 14:13:00,
2013-04-06 10:18:00,38.1,13.5,29.94,SSW,202,3.9,5.7,36,0.00,,,0.00,VWS V14.00,2013-04-06 14:18:00,
2013-04-06 10:23:00,38.3,13.7,29.94,WNW,292,4.7,5.7,36,0.00,,,0.00,VWS V14.00,2013-04-06 14:23:00,
2013-04-06 10:28:00,38.5,13.9,29.97,NNE,22,1.6,3.0,36,0.00,,,0.00,VWS V14.00,2013-04-06 14:28:00,
2013-04-06 10:33:00,39.2,14.5,29.97,ENE,68,3.5,5.7,36,0.00,,,0.00,VWS V14.00,2013-04-06 14:33:00,
2013-04-06 10:38:00,39.0,14.3,29.97,North,0,2.3,7.3,36,0.00,,,0.00,VWS V14.00,2013-04-06 14:38:00,
2013-04-06 10:43:00,38.5,13.2,29.97,SSE,158,2.7,3.7,35,0.00,,,0.00,VWS V14.00,2013-04-06 14:43:00,
2013-04-06 10:48:00,38.5,13.2,29.97,North,0,5.1,6.1,35,0.00,,,0.00,VWS V14.00,2013-04-06 14:48:00,
2013-04-06 10:53:00,39.0,13.7,29.97,WSW,248,4.3,5.3,35,0.00,,,0.00,VWS V14.00,2013-04-06 14:53:00,
2013-04-06 10:58:00,38.8,13.5,29.94,NNE,22,6.3,7.3,35,0.00,,,0.00,VWS V14.00,2013-04-06 14:58:00,
2013-04-06 11:03:00,39.4,14.0,29.94,North,0,4.3,7.3,35,0.00,,,0.00,VWS V14.00,2013-04-06 15:03:00,
2013-04-06 11:08:00,39.7,13.7,29.94,NE,45,7.0,8.0,34,0.00,,,0.00,VWS V14.00,2013-04-06 15:08:00,
2013-04-06 11:13:00,39.9,13.8,29.97,NE,45,4.3,5.3,34,0.00,,,0.00,VWS V14.00,2013-04-06 15:13:00,
2013-04-06 11:18:00,39.4,13.4,29.97,South,180,3.5,4.5,34,0.00,,,0.00,VWS V14.00,2013-04-06 15:18:00,
2013-04-06 11:23:00,40.1,14.7,29.97,North,0,4.7,5.7,35,0.00,,,0.00,VWS V14.00,2013-04-06 15:23:00,
2013-04-06 11:28:00,40.3,14.2,29.97,SE,135,3.9,10.4,34,0.00,,,0.00,VWS V14.00,2013-04-06 15:28:00,
2013-04-06 11:33:00,40.3,14.2,29.97,NW,315,2.3,3.3,34,0.00,,,0.00,VWS V14.00,2013-04-06 15:33:00,
2013-04-06 11:38:00,39.7,13.7,29.97,NNW,338,0.0,1.0,34,0.00,,,0.00,VWS V14.00,2013-04-06 15:38:00,
2013-04-06 11:43:00,40.1,14.0,29.97,East,90,1.6,2.6,34,0.00,,,0.00,VWS V14.00,2013-04-06 15:43:00,
2013-04-06 11:48:00,40.5,14.3,29.97,South,180,3.5,4.5,34,0.00,,,0.00,VWS V14.00,2013-04-06 15:48:00,
2013-04-06 11:53:00,40.6,14.5,29.97,SW,225,2.3,4.9,34,0.00,,,0.00,VWS V14.00,2013-04-06 15:53:00,
2013-04-06 11:58:00,40.5,13.6,29.97,SSE,158,4.3,5.3,33,0.00,,,0.00,VWS V14.00,2013-04-06 15:58:00,
2013-04-06 12:03:00,41.0,14.1,29.97,SW,225,11.0,12.0,33,0.00,,,0.00,VWS V14.00,2013-04-06 16:03:00,
2013-04-06 12:08:00,40.8,14.0,29.97,NNE,22,1.6,2.6,33,0.00,,,0.00,VWS V14.00,2013-04-06 16:08:00,
2013-04-06 12:13:00,41.2,14.3,29.97,NNW,338,2.3,6.1,33,0.00,,,0.00,VWS V14.00,2013-04-06 16:13:00,
2013-04-06 12:18:00,41.5,14.6,29.97,WNW,292,4.3,5.7,33,0.00,,,0.00,VWS V14.00,2013-04-06 16:18:00,
2013-04-06 12:23:00,41.5,14.6,29.97,NW,315,7.4,8.4,33,0.00,,,0.00,VWS V14.00,2013-04-06 16:23:00,
2013-04-06 12:28:00,41.5,14.6,29.97,SSW,202,0.0,7.7,33,0.00,,,0.00,VWS V14.00,2013-04-06 16:28:00,
2013-04-06 12:33:00,41.9,14.9,29.97,NE,45,1.6,2.6,33,0.00,,,0.00,VWS V14.00,2013-04-06 16:33:00,
2013-04-06 12:38:00,41.7,14.8,29.97,NNW,338,2.7,3.7,33,0.00,,,0.00,VWS V14.00,2013-04-06 16:38:00,
2013-04-06 12:43:00,42.3,15.2,29.97,SSW,202,0.0,3.0,33,0.00,,,0.00,VWS V14.00,2013-04-06 16:43:00,
2013-04-06 12:48:00,41.9,14.9,29.97,NW,315,6.7,7.7,33,0.00,,,0.00,VWS V14.00,2013-04-06 16:48:00,
2013-04-06 12:53:00,42.4,14.7,29.97,West,270,4.7,5.7,32,0.00,,,0.00,VWS V14.00,2013-04-06 16:53:00,
2013-04-06 12:58:00,42.3,14.5,29.97,North,0,0.0,1.0,32,0.00,,,0.00,VWS V14.00,2013-04-06 16:58:00,
2013-04-06 13:03:00,42.3,14.5,29.97,West,270,4.3,5.3,32,0.00,,,0.00,VWS V14.00,2013-04-06 17:03:00,
2013-04-06 13:08:00,42.1,14.4,29.97,NW,315,6.3,7.3,32,0.00,,,0.00,VWS V14.00,2013-04-06 17:08:00,
2013-04-06 13:13:00,42.1,14.4,29.97,NNE,22,5.1,6.1,32,0.00,,,0.00,VWS V14.00,2013-04-06 17:13:00,
2013-04-06 13:18:00,42.3,14.5,29.97,NNW,338,2.7,9.6,32,0.00,,,0.00,VWS V14.00,2013-04-06 17:18:00,
2013-04-06 13:23:00,42.3,14.5,29.97,NE,45,4.3,5.3,32,0.00,,,0.00,VWS V14.00,2013-04-06 17:23:00,
2013-04-06 13:28:00,42.1,14.4,29.97,SE,135,2.3,4.9,32,0.00,,,0.00,VWS V14.00,2013-04-06 17:28:00,
2013-04-06 13:33:00,42.3,14.5,29.97,WNW,292,9.4,10.4,32,0.00,,,0.00,VWS V14.00,2013-04-06 17:33:00,
2013-04-06 13:38:00,42.8,14.3,29.97,NW,315,6.7,7.7,31,0.00,,,0.00,VWS V14.00,2013-04-06 17:38:00,
2013-04-06 13:43:00,42.4,14.0,29.97,NNE,22,6.7,7.7,31,0.00,,,0.00,VWS V14.00,2013-04-06 17:43:00,
2013-04-06 13:48:00,42.8,14.3,29.97,NW,315,0.0,3.7,31,0.00,,,0.00,VWS V14.00,2013-04-06 17:48:00,
2013-04-06 13:53:00,43.0,14.4,29.97,SSW,202,0.0,3.0,31,0.00,,,0.00,VWS V14.00,2013-04-06 17:53:00,
2013-04-06 13:58:00,42.8,14.3,29.97,WSW,248,2.3,7.3,31,0.00,,,0.00,VWS V14.00,2013-04-06 17:58:00,
2013-04-06 14:03:00,43.2,14.6,29.97,NNW,338,0.0,6.9,31,0.00,,,0.00,VWS V14.00,2013-04-06 18:03:00,
2013-04-06 14:08:00,42.4,14.0,29.97,North,0,9.8,10.8,31,0.00,,,0.00,VWS V14.00,2013-04-06 18:08:00,
2013-04-06 14:13:00,42.3,13.8,29.97,North,0,5.1,7.7,31,0.00,,,0.00,VWS V14.00,2013-04-06 18:13:00,
2013-04-06 14:18:00,42.8,14.3,29.97,South,180,6.7,7.7,31,0.00,,,0.00,VWS V14.00,2013-04-06 18:18:00,
2013-04-06 14:23:00,43.0,14.4,29.97,NNW,338,2.0,3.0,31,0.00,,,0.00,VWS V14.00,2013-04-06 18:23:00,
2013-04-06 14:28:00,43.3,14.8,29.97,SSW,202,1.6,5.7,31,0.00,,,0.00,VWS V14.00,2013-04-06 18:28:00,
2013-04-06 14:33:00,43.3,14.8,29.97,SSW,202,5.1,6.1,31,0.00,,,0.00,VWS V14.00,2013-04-06 18:33:00,
2013-04-06 14:38:00,43.3,14.0,29.97,NNE,22,7.0,8.0,30,0.00,,,0.00,VWS V14.00,2013-04-06 18:38:00,
2013-04-06 14:43:00,43.3,14.0,29.97,WNW,292,5.9,6.9,30,0.00,,,0.00,VWS V14.00,2013-04-06 18:43:00,
2013-04-06 14:48:00,43.2,13.8,29.97,SSW,202,0.0,8.4,30,0.00,,,0.00,VWS V14.00,2013-04-06 18:48:00,
2013-04-06 14:53:00,43.5,14.2,29.97,North,0,6.3,7.3,30,0.00,,,0.00,VWS V14.00,2013-04-06 18:53:00,
2013-04-06 14:58:00,43.7,14.3,29.97,North,0,5.5,8.0,30,0.00,,,0.00,VWS V14.00,2013-04-06 18:58:00,
2013-04-06 15:03:00,43.9,14.5,29.97,SW,225,8.2,9.2,30,0.00,,,0.00,VWS V14.00,2013-04-06 19:03:00,
2013-04-06 15:08:00,43.7,14.3,29.97,WSW,248,0.0,4.5,30,0.00,,,0.00,VWS V14.00,2013-04-06 19:08:00,
2013-04-06 15:13:00,43.7,14.3,29.97,WNW,292,2.7,3.7,30,0.00,,,0.00,VWS V14.00,2013-04-06 19:13:00,
2013-04-06 15:18:00,43.9,14.5,29.97,West,270,0.0,4.5,30,0.00,,,0.00,VWS V14.00,2013-04-06 19:18:00,
2013-04-06 15:23:00,44.1,14.6,29.97,NNE,22,2.0,3.0,30,0.00,,,0.00,VWS V14.00,2013-04-06 19:23:00,
2013-04-06 15:28:00,43.7,14.3,29.97,NE,45,6.7,10.4,30,0.00,,,0.00,VWS V14.00,2013-04-06 19:28:00,
2013-04-06 15:33:00,43.7,14.3,29.97,ENE,68,0.0,1.0,30,0.00,,,0.00,VWS V14.00,2013-04-06 19:33:00,
2013-04-06 15:38:00,44.1,14.6,29.97,NNW,338,3.5,4.5,30,0.00,,,0.00,VWS V14.00,2013-04-06 19:38:00,
2013-04-06 15:43:00,43.7,14.3,29.97,NW,315,0.0,9.6,30,0.00,,,0.00,VWS V14.00,2013-04-06 19:43:00,
2013-04-06 15:48:00,44.4,14.9,29.97,NW,315,4.7,5.7,30,0.00,,,0.00,VWS V14.00,2013-04-06 19:48:00,
2013-04-06 15:53:00,44.2,14.8,29.97,NNW,338,3.9,4.9,30,0.00,,,0.00,VWS V14.00,2013-04-06 19:53:00,
2013-04-06 15:58:00,44.6,15.1,29.97,West,270,0.0,1.0,30,0.00,,,0.00,VWS V14.00,2013-04-06 19:58:00,
2013-04-06 16:03:00,44.2,14.8,29.97,West,270,2.3,3.3,30,0.00,,,0.00,VWS V14.00,2013-04-06 20:03:00,
2013-04-06 16:08:00,44.2,14.8,29.97,North,0,1.6,3.3,30,0.00,,,0.00,VWS V14.00,2013-04-06 20:08:00,
2013-04-06 16:13:00,44.1,14.6,29.97,West,270,0.0,1.0,30,0.00,,,0.00,VWS V14.00,2013-04-06 20:13:00,
2013-04-06 16:18:00,44.4,14.9,29.97,SSW,202,0.0,1.0,30,0.00,,,0.00,VWS V14.00,2013-04-06 20:18:00,
2013-04-06 16:23:00,44.4,14.9,29.97,WNW,292,1.6,3.0,30,0.00,,,0.00,VWS V14.00,2013-04-06 20:23:00,
2013-04-06 16:28:00,44.2,14.8,29.97,West,270,3.9,4.9,30,0.00,,,0.00,VWS V14.00,2013-04-06 20:28:00,
2013-04-06 16:33:00,44.6,14.3,29.97,West,270,0.0,6.1,29,0.00,,,0.00,VWS V14.00,2013-04-06 20:33:00,
2013-04-06 16:38:00,44.2,14.8,29.97,NE,45,4.7,5.7,30,0.00,,,0.00,VWS V14.00,2013-04-06 20:38:00,
2013-04-06 16:43:00,44.2,14.0,29.97,North,0,2.3,3.3,29,0.00,,,0.00,VWS V14.00,2013-04-06 20:43:00,
2013-04-06 16:48:00,44.4,14.2,29.97,WNW,292,0.0,3.3,29,0.00,,,0.00,VWS V14.00,2013-04-06 20:48:00,
2013-04-06 16:53:00,44.4,14.2,29.97,WNW,292,1.6,3.7,29,0.00,,,0.00,VWS V14.00,2013-04-06 20:53:00,
2013-04-06 16:58:00,44.4,14.2,29.97,West,270,5.1,6.1,29,0.00,,,0.00,VWS V14.00,2013-04-06 20:58:00,
2013-04-06 17:03:00,44.6,14.3,29.97,NNW,338,2.3,3.3,29,0.00,,,0.00,VWS V14.00,2013-04-06 21:03:00,
2013-04-06 17:08:00,44.2,14.0,29.97,NNE,22,2.3,6.1,29,0.00,,,0.00,VWS V14.00,2013-04-06 21:08:00,
2013-04-06 17:13:00,44.2,14.0,30.00,NNE,22,0.0,2.6,29,0.00,,,0.00,VWS V14.00,2013-04-06 21:13:00,
2013-04-06 17:18:00,44.2,14.0,30.00,South,180,0.0,1.0,29,0.00,,,0.00,VWS V14.00,2013-04-06 21:18:00,
2013-04-06 17:23:00,44.4,14.2,30.00,WNW,292,3.5,4.5,29,0.00,,,0.00,VWS V14.00,2013-04-06 21:23:00,
2013-04-06 17:28:00,44.2,14.0,30.00,WNW,292,0.0,1.0,29,0.00,,,0.00,VWS V14.00,2013-04-06 21:28:00,
2013-04-06 17:33:00,44.2,14.0,30.00,North,0,0.0,1.0,29,0.00,,,0.00,VWS V14.00,2013-04-06 21:33:00,
2013-04-06 17:38:00,44.2,14.0,30.00,WSW,248,0.0,1.0,29,0.00,,,0.00,VWS V14.00,2013-04-06 21:38:00,
2013-04-06 17:43:00,44.2,14.0,30.00,WNW,292,0.0,1.0,29,0.00,,,0.00,VWS V14.00,2013-04-06 21:43:00,
2013-04-06 17:48:00,44.2,14.0,30.00,North,0,0.0,1.0,29,0.00,,,0.00,VWS V14.00,2013-04-06 21:48:00,
2013-04-06 17:53:00,44.1,13.9,30.00,East,90,4.3,5.3,29,0.00,,,0.00,VWS V14.00,2013-04-06 21:53:00,
2013-04-06 17:58:00,44.1,13.9,30.00,SSE,158,0.0,1.0,29,0.00,,,0.00,VWS V14.00,2013-04-06 21:58:00,
2013-04-06 18:03:00,43.9,13.7,30.00,NW,315,0.0,1.0,29,0.00,,,0.00,VWS V14.00,2013-04-06 22:03:00,
2013-04-06 18:08:00,43.9,13.7,30.00,North,0,0.0,1.0,29,0.00,,,0.00,VWS V14.00,2013-04-06 22:08:00,
2013-04-06 18:13:00,43.9,13.7,30.03,SW,225,0.0,1.0,29,0.00,,,0.00,VWS V14.00,2013-04-06 22:13:00,
2013-04-06 18:18:00,43.7,13.5,30.03,NNW,338,0.0,1.0,29,0.00,,,0.00,VWS V14.00,2013-04-06 22:18:00,
2013-04-06 18:23:00,43.7,13.5,30.03,NE,45,0.0,1.0,29,0.00,,,0.00,VWS V14.00,2013-04-06 22:23:00,
2013-04-06 18:28:00,43.7,13.5,30.03,SSE,158,0.0,1.0,29,0.00,,,0.00,VWS V14.00,2013-04-06 22:28:00,
2013-04-06 18:33:00,43.5,13.4,30.03,NNE,22,0.0,1.0,29,0.00,,,0.00,VWS V14.00,2013-04-06 22:33:00,
2013-04-06 18:38:00,43.5,13.4,30.03,NW,315,0.0,1.0,29,0.00,,,0.00,VWS V14.00,2013-04-06 22:38:00,
2013-04-06 18:43:00,43.3,13.2,30.03,NW,315,0.0,1.0,29,0.00,,,0.00,VWS V14.00,2013-04-06 22:43:00,
2013-04-06 18:48:00,43.3,13.2,30.03,West,270,0.0,1.0,29,0.00,,,0.00,VWS V14.00,2013-04-06 22:48:00,
2013-04-06 18:53:00,43.0,12.9,30.03,SSE,158,0.0,1.0,29,0.00,,,0.00,VWS V14.00,2013-04-06 22:53:00,
2013-04-06 18:58:00,43.0,12.9,30.03,NW,315,0.0,1.0,29,0.00,,,0.00,VWS V14.00,2013-04-06 22:58:00,
2013-04-06 19:03:00,42.8,12.8,30.03,WNW,292,0.0,1.0,29,0.00,,,0.00,VWS V14.00,2013-04-06 23:03:00,
2013-04-06 19:08:00,42.6,12.6,30.03,NNE,22,0.0,1.0,29,0.00,,,0.00,VWS V14.00,2013-04-06 23:08:00,
2013-04-06 19:13:00,42.6,12.6,30.03,NW,315,0.0,1.0,29,0.00,,,0.00,VWS V14.00,2013-04-06 23:13:00,
2013-04-06 19:18:00,42.4,12.4,30.03,NW,315,0.0,2.6,29,0.00,,,0.00,VWS V14.00,2013-04-06 23:18:00,
2013-04-06 19:23:00,42.3,12.3,30.03,NW,315,0.0,1.0,29,0.00,,,0.00,VWS V14.00,2013-04-06 23:23:00,
2013-04-06 19:28:00,42.1,12.1,30.03,NW,315,0.0,1.0,29,0.00,,,0.00,VWS V14.00,2013-04-06 23:28:00,
2013-04-06 19:33:00,41.7,11.8,30.03,NW,315,0.0,1.0,29,0.00,,,0.00,VWS V14.00,2013-04-06 23:33:00,
2013-04-06 19:38:00,41.7,11.8,30.03,NW,315,0.0,1.0,29,0.00,,,0.00,VWS V14.00,2013-04-06 23:38:00,
2013-04-06 19:43:00,41.5,12.4,30.06,NW,315,0.0,1.0,30,0.00,,,0.00,VWS V14.00,2013-04-06 23:43:00,
2013-04-06 19:48:00,41.4,12.3,30.06,NW,315,0.0,1.0,30,0.00,,,0.00,VWS V14.00,2013-04-06 23:48:00,
2013-04-06 19:53:00,41.2,12.1,30.06,NW,315,0.0,1.0,30,0.00,,,0.00,VWS V14.00,2013-04-06 23:53:00,
2013-04-06 19:58:00,41.0,12.0,30.06,NW,315,0.0,1.0,30,0.00,,,0.00,VWS V14.00,2013-04-06 23:58:00,
2013-04-06 20:03:00,40.8,11.8,30.06,NW,315,0.0,1.0,30,0.00,,,0.00,VWS V14.00,2013-04-07 00:03:00,
2013-04-06 20:08:00,40.6,11.6,30.06,NW,315,0.0,1.0,30,0.00,,,0.00,VWS V14.00,2013-04-07 00:08:00,
2013-04-06 20:13:00,40.6,11.6,30.06,NW,315,0.0,1.0,30,0.00,,,0.00,VWS V14.00,2013-04-07 00:13:00,
2013-04-06 20:18:00,40.5,11.5,30.06,NW,315,0.0,1.0,30,0.00,,,0.00,VWS V14.00,2013-04-07 00:18:00,
2013-04-06 20:23:00,40.3,11.3,30.06,NW,315,0.0,1.0,30,0.00,,,0.00,VWS V14.00,2013-04-07 00:23:00,
2013-04-06 20:28:00,40.3,11.3,30.06,NW,315,0.0,1.0,30,0.00,,,0.00,VWS V14.00,2013-04-07 00:28:00,
2013-04-06 20:33:00,40.1,11.2,30.06,NW,315,0.0,1.0,30,0.00,,,0.00,VWS V14.00,2013-04-07 00:33:00,
2013-04-06 20:38:00,39.9,11.0,30.06,NW,315,0.0,1.0,30,0.00,,,0.00,VWS V14.00,2013-04-07 00:38:00,
2013-04-06 20:43:00,39.9,11.0,30.09,NW,315,0.0,1.0,30,0.00,,,0.00,VWS V14.00,2013-04-07 00:43:00,
2013-04-06 20:48:00,39.7,10.9,30.09,NW,315,0.0,1.0,30,0.00,,,0.00,VWS V14.00,2013-04-07 00:48:00,
2013-04-06 20:53:00,39.6,10.7,30.09,NW,315,0.0,1.0,30,0.00,,,0.00,VWS V14.00,2013-04-07 00:53:00,
2013-04-06 20:58:00,39.4,10.5,30.09,NW,315,0.0,1.0,30,0.00,,,0.00,VWS V14.00,2013-04-07 00:58:00,
2013-04-06 21:04:00,39.4,10.5,30.09,NW,315,0.0,1.0,30,0.00,,,0.00,VWS V14.00,2013-04-07 01:04:00,
2013-04-06 21:09:00,39.2,11.1,30.09,NW,315,0.0,1.0,31,0.00,,,0.00,VWS V14.00,2013-04-07 01:09:00,
2013-04-06 21:14:00,39.2,11.1,30.09,NW,315,0.0,1.0,31,0.00,,,0.00,VWS V14.00,2013-04-07 01:14:00,
2013-04-06 21:19:00,39.0,11.0,30.09,NW,315,0.0,1.0,31,0.00,,,0.00,VWS V14.00,2013-04-07 01:19:00,
2013-04-06 21:24:00,38.8,10.8,30.09,NW,315,0.0,1.0,31,0.00,,,0.00,VWS V14.00,2013-04-07 01:24:00,
2013-04-06 21:29:00,38.8,10.8,30.09,NW,315,0.0,1.0,31,0.00,,,0.00,VWS V14.00,2013-04-07 01:29:00,
2013-04-06 21:34:00,38.8,10.8,30.09,NW,315,0.0,1.0,31,0.00,,,0.00,VWS V14.00,2013-04-07 01:34:00,
2013-04-06 21:39:00,38.8,10.8,30.09,NW,315,0.0,1.0,31,0.00,,,0.00,VWS V14.00,2013-04-07 01:39:00,
2013-04-06 21:44:00,38.7,10.6,30.09,NW,315,0.0,1.0,31,0.00,,,0.00,VWS V14.00,2013-04-07 01:44:00,
2013-04-06 21:49:00,38.5,10.5,30.09,NW,315,0.0,1.0,31,0.00,,,0.00,VWS V14.00,2013-04-07 01:49:00,
2013-04-06 21:54:00,38.3,10.3,30.09,NW,315,0.0,1.0,31,0.00,,,0.00,VWS V14.00,2013-04-07 01:54:00,
2013-04-06 21:59:00,38.3,10.3,30.09,North,0,0.0,1.0,31,0.00,,,0.00,VWS V14.00,2013-04-07 01:59:00,
2013-04-06 22:04:00,38.5,11.2,30.09,NNW,338,0.0,2.6,32,0.00,,,0.00,VWS V14.00,2013-04-07 02:04:00,
2013-04-06 22:09:00,38.5,11.9,30.09,NNE,22,0.0,1.0,33,0.00,,,0.00,VWS V14.00,2013-04-07 02:09:00,
2013-04-06 22:14:00,38.5,11.9,30.09,NNE,22,0.0,1.0,33,0.00,,,0.00,VWS V14.00,2013-04-07 02:14:00,
2013-04-06 22:19:00,38.5,12.6,30.09,NW,315,0.0,1.0,34,0.00,,,0.00,VWS V14.00,2013-04-07 02:19:00,
2013-04-06 22:24:00,38.3,13.1,30.09,NNW,338,0.0,1.0,35,0.00,,,0.00,VWS V14.00,2013-04-07 02:24:00,
2013-04-06 22:30:00,38.3,13.7,30.09,WNW,292,0.0,1.0,36,0.00,,,0.00,VWS V14.00,2013-04-07 02:30:00,
2013-04-06 22:35:00,38.3,13.7,30.09,WNW,292,0.0,1.0,36,0.00,,,0.00,VWS V14.00,2013-04-07 02:35:00,
2013-04-06 22:40:00,38.1,13.5,30.09,WNW,292,0.0,1.0,36,0.00,,,0.00,VWS V14.00,2013-04-07 02:40:00,
2013-04-06 22:45:00,38.1,14.8,30.09,NNE,22,0.0,1.0,38,0.00,,,0.00,VWS V14.00,2013-04-07 02:45:00,
2013-04-06 22:50:00,38.1,14.8,30.09,NW,315,0.0,1.0,38,0.00,,,0.00,VWS V14.00,2013-04-07 02:50:00,
2013-04-06 22:55:00,38.1,15.4,30.09,NW,315,0.0,1.0,39,0.00,,,0.00,VWS V14.00,2013-04-07 02:55:00,
2013-04-06 23:00:00,37.9,15.2,30.09,NW,315,0.0,1.0,39,0.00,,,0.00,VWS V14.00,2013-04-07 03:00:00,
2013-04-06 23:05:00,37.9,15.2,30.09,WNW,292,0.0,1.0,39,0.00,,,0.00,VWS V14.00,2013-04-07 03:05:00,
2013-04-06 23:10:00,37.8,15.0,30.09,WNW,292,0.0,1.0,39,0.00,,,0.00,VWS V14.00,2013-04-07 03:10:00,
2013-04-06 23:15:00,37.8,15.0,30.09,WNW,292,0.0,1.0,39,0.00,,,0.00,VWS V14.00,2013-04-07 03:15:00,
2013-04-06 23:20:00,37.6,14.9,30.09,WNW,292,0.0,1.0,39,0.00,,,0.00,VWS V14.00,2013-04-07 03:20:00,
2013-04-06 23:25:00,37.6,14.9,30.09,WNW,292,0.0,1.0,39,0.00,,,0.00,VWS V14.00,2013-04-07 03:25:00,
2013-04-06 23:30:00,37.6,14.9,30.09,NW,315,0.0,1.0,39,0.00,,,0.00,VWS V14.00,2013-04-07 03:30:00,
2013-04-06 23:35:00,37.4,14.7,30.09,NW,315,0.0,1.0,39,0.00,,,0.00,VWS V14.00,2013-04-07 03:35:00,
2013-04-06 23:40:00,37.4,14.7,30.09,NW,315,0.0,1.0,39,0.00,,,0.00,VWS V14.00,2013-04-07 03:40:00,
2013-04-06 23:45:00,37.2,15.1,30.09,NW,315,0.0,1.0,40,0.00,,,0.00,VWS V14.00,2013-04-07 03:45:00,
2013-04-06 23:50:00,37.2,15.1,30.09,NW,315,0.0,1.0,40,0.00,,,0.00,VWS V14.00,2013-04-07 03:50:00,
2013-04-06 23:55:00,37.0,15.0,30.09,NW,315,0.0,1.0,40,0.00,,,0.00,VWS V14.00,2013-04-07 03:55:00,